Time;durP1;ratioP1;P1;durP2;ratioP2;P2;SDS_P1;SDS_P2;PMS_P1;PMS_P2;Temp;Humidity;BMP_temperature;BMP_pressure;BME280_temperature;BME280_humidity;BME280_pressure;Samples;Min_cycle;Max_cycle;Signal;HPM_P1;HPM_P2
2024/04/14 00:03:56;;;;;;;20.63;4.13;;;14.20;1.00;;;;;;5240499;22;20017;-81
2024/04/14 00:09:53;;;;;;;15.32;4.13;;;14.20;1.00;;;;;;5144002;27;40417;-82
2024/04/14 00:12:46;;;;;;;13.57;4.03;;;14.30;1.00;;;;;;5175316;27;40046;-83
2024/04/14 00:15:38;;;;;;;15.25;3.00;;;14.30;1.00;;;;;;5207339;27;39988;-83
2024/04/14 00:27:43;;;;;;;13.10;3.10;;;14.30;1.00;;;;;;4868499;25;20033;-84
2024/04/14 00:34:04;;;;;;;13.93;3.85;;;14.40;1.00;;;;;;5141263;27;50802;-83
2024/04/14 00:37:02;;;;;;;13.70;3.22;;;14.40;1.00;;;;;;5133223;27;48915;-82
2024/04/14 00:39:53;;;;;;;13.20;2.10;;;14.30;1.00;;;;;;5148152;27;38956;-82
2024/04/14 00:42:21;;;;;;;15.70;3.40;;;14.20;1.00;;;;;;5256052;22;38001;-82
2024/04/14 00:45:41;;;;;;;18.48;3.00;;;14.10;1.00;;;;;;5146467;27;37761;-81
2024/04/14 00:49:02;;;;;;;15.45;3.05;;;13.90;1.00;;;;;;5094719;27;48594;-82
2024/04/14 00:52:10;;;;;;;13.07;2.63;;;13.80;1.00;;;;;;5163416;27;39625;-81
2024/04/14 00:57:40;;;;;;;11.80;2.33;;;13.60;1.00;;;;;;4366601;25;20017;-81
2024/04/14 01:03:30;;;;;;;9.70;1.83;;;13.50;1.00;;;;;;6040424;22;20010;-83
2024/04/14 01:06:40;;;;;;;11.88;2.55;;;13.40;1.00;;;;;;5197120;26;39330;-82
2024/04/14 01:09:35;;;;;;;8.68;2.13;;;13.30;1.00;;;;;;5176718;27;37347;-82
2024/04/14 01:12:49;;;;;;;10.90;2.05;;;13.40;1.00;;;;;;5207044;22;40191;-81
2024/04/14 01:15:40;;;;;;;10.05;2.35;;;13.30;1.00;;;;;;5183256;27;38152;-81
2024/04/14 01:18:13;;;;;;;9.65;2.17;;;13.30;1.00;;;;;;5210507;27;38220;-81
2024/04/14 01:20:57;;;;;;;11.27;2.40;;;13.30;1.00;;;;;;5255763;26;37900;-81
2024/04/14 01:23:38;;;;;;;9.40;1.85;;;13.20;1.00;;;;;;5201558;27;38883;-81
2024/04/14 01:26:22;;;;;;;13.18;2.20;;;13.10;1.00;;;;;;5237015;27;39558;-81
2024/04/14 01:28:55;;;;;;;7.35;1.88;;;13.00;1.00;;;;;;5241111;27;38536;-81
2024/04/14 01:31:29;;;;;;;;;;;12.90;1.00;;;;;;5206033;27;37669;-81
2024/04/14 01:33:58;;;;;;;12.55;1.83;;;12.90;1.00;;;;;;5237183;27;39087;-80
2024/04/14 01:37:05;;;;;;;9.20;1.77;;;12.90;1.00;;;;;;5233165;27;39687;-81
2024/04/14 01:39:59;;;;;;;9.88;1.77;;;12.90;1.00;;;;;;5197192;27;49079;-82
2024/04/14 01:42:36;;;;;;;9.70;1.65;;;12.80;1.00;;;;;;5240025;27;38802;-81
2024/04/14 01:45:09;;;;;;;11.23;1.90;;;12.70;1.00;;;;;;5249662;27;40220;-80
2024/04/14 01:47:49;;;;;;;;;;;;;;;;;;;;;
2024/04/14 01:50:33;;;;;;;6.13;1.35;;;12.60;1.00;;;;;;5150446;27;39039;-80
2024/04/14 01:53:09;;;;;;;13.75;2.00;;;12.50;1.00;;;;;;5140995;27;36345;-80
2024/04/14 01:55:51;;;;;;;12.23;1.70;;;12.50;1.00;;;;;;5089007;27;48813;-81
2024/04/14 01:58:27;;;;;;;12.57;1.88;;;12.50;1.00;;;;;;5131701;27;38773;-81
2024/04/14 02:01:18;;;;;;;7.90;1.17;;;12.50;1.00;;;;;;5159691;27;38546;-81
2024/04/14 02:03:57;;;;;;;7.65;1.70;;;12.50;1.00;;;;;;5106703;27;49378;-81
2024/04/14 02:06:30;;;;;;;10.23;1.85;;;12.50;1.00;;;;;;5139002;27;39507;-80
2024/04/14 02:09:35;;;;;;;7.53;1.27;;;12.40;1.00;;;;;;5084355;27;38634;-81
2024/04/14 02:12:19;;;;;;;10.00;1.70;;;12.30;1.00;;;;;;5085895;27;50166;-81
2024/04/14 02:14:56;;;;;;;7.82;1.50;;;12.30;1.00;;;;;;5088297;27;38273;-81
2024/04/14 02:17:51;;;;;;;10.90;1.90;;;12.30;1.00;;;;;;5123654;27;38685;-81
2024/04/14 02:20:28;;;;;;;12.18;1.90;;;12.20;1.00;;;;;;5110947;27;38348;-82
2024/04/14 02:23:06;;;;;;;10.10;1.85;;;12.20;1.00;;;;;;5082084;27;39404;-80
2024/04/14 02:26:10;;;;;;;12.82;2.05;;;12.20;1.00;;;;;;5103415;27;49444;-80
2024/04/14 02:29:05;;;;;;;8.07;1.77;;;12.20;1.00;;;;;;5070854;27;49487;-81
2024/04/14 02:31:53;;;;;;;5.88;1.42;;;12.20;1.00;;;;;;5078555;27;50111;-81
2024/04/14 02:34:55;;;;;;;11.63;2.03;;;12.10;1.00;;;;;;5109873;27;38040;-80
2024/04/14 02:37:29;;;;;;;10.73;1.52;;;12.20;1.00;;;;;;5130392;27;38562;-81
2024/04/14 02:40:13;;;;;;;13.73;1.92;;;12.20;1.00;;;;;;5159626;27;40865;-80
2024/04/14 02:43:03;;;;;;;11.13;1.80;;;12.20;1.00;;;;;;5188423;27;49894;-81
2024/04/14 02:45:53;;;;;;;11.30;2.67;;;12.20;1.00;;;;;;5166541;27;50308;-82
2024/04/14 02:48:20;;;;;;;13.27;2.30;;;12.20;1.00;;;;;;5178591;27;38640;-82
2024/04/14 02:51:20;;;;;;;13.15;2.05;;;12.20;1.00;;;;;;5183901;27;40372;-81
2024/04/14 02:58:45;;;;;;;13.13;2.42;;;12.10;1.00;;;;;;5142331;27;50149;-82
2024/04/14 03:01:26;;;;;;;15.45;2.67;;;11.90;1.00;;;;;;5185436;27;49167;-81
2024/04/14 03:04:33;;;;;;;15.65;2.30;;;11.90;1.00;;;;;;5219118;27;41079;-82
2024/04/14 03:07:42;;;;;;;9.77;2.00;;;11.90;1.00;;;;;;5195657;27;50321;-81
2024/04/14 03:13:24;;;;;;;13.13;2.00;;;11.80;1.00;;;;;;5171921;25;20025;-82
2024/04/14 03:16:10;;;;;;;18.23;2.30;;;11.90;1.00;;;;;;5128601;27;50275;-82
2024/04/14 03:21:50;;;;;;;13.90;2.28;;;11.80;1.00;;;;;;5349944;22;20036;-81
2024/04/14 03:24:51;;;;;;;11.52;1.70;;;11.80;1.00;;;;;;5196318;27;50247;-81
2024/04/14 03:27:40;;;;;;;10.55;2.30;;;11.70;1.00;;;;;;5153922;27;38399;-81
2024/04/14 03:30:37;;;;;;;12.27;2.60;;;11.70;1.00;;;;;;5187425;27;40128;-81
2024/04/14 03:33:46;;;;;;;14.60;2.75;;;11.70;1.00;;;;;;5173574;27;38699;-80
2024/04/14 03:36:27;;;;;;;5.82;1.50;;;11.70;1.00;;;;;;5118369;27;37683;-81
2024/04/14 03:42:43;;;;;;;14.43;2.38;;;11.70;1.00;;;;;;5125984;27;50781;-81
2024/04/14 03:48:16;;;;;;;11.23;2.17;;;11.70;1.00;;;;;;5723013;22;20008;-82
2024/04/14 03:54:07;;;;;;;13.27;1.90;;;11.60;1.00;;;;;;5176612;27;50259;-80
2024/04/14 03:56:51;;;;;;;15.75;3.28;;;11.60;1.00;;;;;;5132207;27;50383;-82
2024/04/14 03:59:43;;;;;;;13.25;2.10;;;11.50;1.00;;;;;;5208471;27;36968;-81
2024/04/14 04:02:57;;;;;;;8.50;1.80;;;11.60;1.00;;;;;;5162573;27;39117;-81
2024/04/14 04:06:13;;;;;;;15.07;2.63;;;11.60;1.00;;;;;;5152477;27;38625;-81
2024/04/14 04:08:44;;;;;;;15.70;2.97;;;11.70;1.00;;;;;;5174148;27;49338;-81
2024/04/14 04:11:23;;;;;;;11.18;1.95;;;11.70;1.00;;;;;;5168353;27;36674;-81
2024/04/14 04:14:11;;;;;;;12.27;2.42;;;11.70;1.00;;;;;;5172390;27;38734;-80
2024/04/14 04:16:57;;;;;;;17.33;2.70;;;11.70;1.00;;;;;;5118560;27;48970;-83
2024/04/14 04:20:03;;;;;;;11.77;2.33;;;11.80;1.00;;;;;;5187030;27;49479;-81
2024/04/14 04:22:56;;;;;;;17.60;2.72;;;11.80;1.00;;;;;;5186299;27;37738;-82
2024/04/14 04:25:47;;;;;;;11.93;2.05;;;11.90;1.00;;;;;;5182495;27;48365;-80
2024/04/14 04:29:18;;;;;;;11.32;2.40;;;11.90;1.00;;;;;;5197542;27;38506;-81
2024/04/14 04:31:55;;;;;;;12.65;1.98;;;11.90;1.00;;;;;;5196460;27;50378;-82
2024/04/14 04:34:44;;;;;;;11.20;1.80;;;11.90;1.00;;;;;;5174333;27;38750;-81
2024/04/14 04:37:37;;;;;;;10.00;2.22;;;11.90;1.00;;;;;;5177254;27;38753;-81
2024/04/14 04:40:48;;;;;;;14.45;2.05;;;11.90;1.00;;;;;;5193178;27;40080;-81
2024/04/14 04:43:33;;;;;;;11.77;1.73;;;11.80;1.00;;;;;;5171012;27;49004;-81
2024/04/14 04:46:12;;;;;;;10.63;2.25;;;11.80;1.00;;;;;;5201805;27;36815;-81
2024/04/14 04:49:00;;;;;;;10.20;1.80;;;11.80;1.00;;;;;;5205796;27;50376;-82
2024/04/14 04:51:51;;;;;;;12.48;2.08;;;11.80;1.00;;;;;;5118095;27;39654;-80
2024/04/14 04:54:32;;;;;;;13.90;2.22;;;11.80;1.00;;;;;;5194912;27;38103;-82
2024/04/14 04:57:14;;;;;;;15.35;2.22;;;11.80;1.00;;;;;;5185033;27;38756;-81
2024/04/14 05:00:14;;;;;;;13.60;2.50;;;11.80;1.00;;;;;;5206264;27;48840;-82
2024/04/14 05:02:50;;;;;;;13.23;2.15;;;11.80;1.00;;;;;;5160391;27;38916;-81
2024/04/14 05:06:03;;;;;;;16.30;2.63;;;11.90;1.00;;;;;;5175351;27;39543;-81
2024/04/14 05:09:08;;;;;;;7.30;1.80;;;11.90;1.00;;;;;;5159528;27;36350;-80
2024/04/14 05:11:39;;;;;;;16.50;2.95;;;11.90;1.00;;;;;;5162498;27;48636;-80
2024/04/14 05:14:34;;;;;;;12.25;2.08;;;11.80;1.00;;;;;;5142961;27;39228;-82
2024/04/14 05:17:10;;;;;;;14.48;2.55;;;11.90;1.00;;;;;;5121732;27;38824;-81
2024/04/14 05:19:55;;;;;;;11.18;1.95;;;11.80;1.00;;;;;;5000725;28;36767;-81
2024/04/14 05:22:32;;;;;;;9.18;1.55;;;11.80;1.00;;;;;;4966503;28;39547;-83
2024/04/14 05:25:17;;;;;;;17.38;2.33;;;11.80;1.00;;;;;;4987292;28;39628;-80
2024/04/14 05:28:25;;;;;;;13.85;2.40;;;11.80;1.00;;;;;;4960748;28;50140;-82
2024/04/14 05:31:02;;;;;;;11.35;2.15;;;11.80;1.00;;;;;;4983594;28;49806;-81
2024/04/14 05:34:03;;;;;;;12.02;1.98;;;11.70;1.00;;;;;;4940514;28;42308;-81
2024/04/14 05:37:04;;;;;;;7.35;1.70;;;11.80;1.00;;;;;;4946754;28;48359;-82
2024/04/14 05:40:06;;;;;;;14.57;2.25;;;11.80;1.00;;;;;;4941887;28;48286;-82
2024/04/14 05:42:45;;;;;;;13.60;2.08;;;11.80;1.00;;;;;;4995157;28;37154;-81
2024/04/14 05:45:45;;;;;;;9.88;1.88;;;11.80;1.00;;;;;;5039773;28;40253;-80
2024/04/14 05:56:43;;;;;;;11.85;2.47;;;11.80;1.00;;;;;;5035992;28;50783;-81
2024/04/14 05:59:29;;;;;;;7.13;1.83;;;11.80;99.90;;;;;;5076542;27;48959;-79
2024/04/14 06:02:33;;;;;;;5.72;1.33;;;11.80;7.30;;;;;;5126531;27;38891;-82
2024/04/14 06:05:42;;;;;;;13.70;2.30;;;11.80;26.10;;;;;;5030173;27;48946;-80
2024/04/14 06:08:16;;;;;;;11.65;1.50;;;11.80;1.00;;;;;;5065272;27;50384;-80
2024/04/14 06:11:17;;;;;;;11.70;1.98;;;11.80;1.00;;;;;;5125348;27;40240;-81
2024/04/14 06:24:43;;;;;;;8.85;1.58;;;11.90;1.00;;;;;;5774849;22;20277;-81
2024/04/14 06:27:30;;;;;;;11.20;2.08;;;12.00;1.00;;;;;;5197089;27;39342;-81
2024/04/14 06:34:02;;;;;;;7.85;1.90;;;12.10;1.00;;;;;;5109844;27;50805;-82
2024/04/14 06:36:50;;;;;;;5.68;1.55;;;12.10;1.00;;;;;;5068811;27;39130;-79
2024/04/14 06:39:51;;;;;;;7.70;1.65;;;12.10;1.00;;;;;;5063614;27;50488;-81
2024/04/14 06:42:42;;;;;;;;;;;;;;;;;;;;;
2024/04/14 06:45:30;;;;;;;7.30;1.65;;;12.10;40.40;;;;;;5085421;27;39551;-82
2024/04/14 06:48:01;;;;;;;7.85;1.50;;;12.10;1.00;;;;;;5105207;27;39664;-79
2024/04/14 07:08:36;;;;;;;8.73;1.08;;;12.50;99.90;;;;;;5347782;22;20014;-82
2024/04/14 07:11:29;;;;;;;9.50;1.67;;;12.50;70.50;;;;;;5155622;27;39861;-81
2024/04/14 07:17:02;;;;;;;7.57;1.17;;;12.50;1.00;;;;;;6007965;22;20084;-82
2024/04/14 07:20:01;;;;;;;3.72;1.23;;;12.60;99.90;;;;;;5098102;27;36822;-83
2024/04/14 07:26:39;;;;;;;9.40;1.63;;;12.70;1.00;;;;;;5130135;27;50146;-83
2024/04/14 07:30:04;;;;;;;6.93;1.30;;;12.70;99.90;;;;;;5167705;27;49129;-84
2024/04/14 07:33:37;;;;;;;5.10;1.35;;;12.60;1.00;;;;;;5174196;27;39045;-83
2024/04/14 07:36:50;;;;;;;5.03;1.00;;;12.70;1.00;;;;;;5044110;28;39786;-83
2024/04/14 07:43:49;;;;;;;7.93;1.23;;;12.70;1.00;;;;;;5077149;28;38832;-83
2024/04/14 07:47:09;;;;;;;;;;;12.80;99.90;;;;;;5086945;27;49522;-85
2024/04/14 07:55:36;;;;;;;7.03;1.13;;;12.80;1.00;;;;;;5108594;27;20061;-79
2024/04/14 07:58:05;;;;;;;17.75;1.95;;;12.80;99.90;;;;;;5144610;27;40550;-79
2024/04/14 08:00:31;;;;;;;18.85;1.50;;;12.90;1.00;;;;;;5120203;27;48889;-80
2024/04/14 08:02:58;;;;;;;8.40;1.20;;;13.20;1.00;;;;;;5124747;28;38100;-80
2024/04/14 08:05:24;;;;;;;5.88;0.80;;;13.20;99.90;;;;;;5123775;27;36246;-80
2024/04/14 08:07:51;;;;;;;4.30;1.38;;;13.20;1.00;;;;;;5120450;28;37835;-79
2024/04/14 08:10:17;;;;;;;6.30;1.33;;;13.40;1.00;;;;;;5106743;27;40157;-78
2024/04/14 08:12:43;;;;;;;7.68;1.33;;;13.50;1.00;;;;;;5112880;28;37410;-81
2024/04/14 08:15:09;;;;;;;8.82;1.80;;;13.50;1.00;;;;;;5116810;27;35829;-79
2024/04/14 08:17:38;;;;;;;5.15;1.30;;;13.60;1.00;;;;;;5108425;28;37973;-80
2024/04/14 08:20:05;;;;;;;7.32;1.10;;;13.50;1.00;;;;;;5122984;27;37528;-80
2024/04/14 08:22:34;;;;;;;6.30;1.38;;;13.70;99.90;;;;;;5146322;27;48718;-78
2024/04/14 08:25:00;;;;;;;6.50;1.30;;;13.80;1.00;;;;;;5117016;27;36641;-78
2024/04/14 08:27:26;;;;;;;6.78;1.15;;;13.80;1.00;;;;;;5106653;27;39814;-78
2024/04/14 08:29:53;;;;;;;9.38;1.77;;;13.80;1.00;;;;;;5106382;27;39634;-78
2024/04/14 08:34:55;;;;;;;8.65;1.10;;;13.50;1.00;;;;;;5768704;22;20024;-77
2024/04/14 08:37:22;;;;;;;3.22;0.88;;;13.60;1.00;;;;;;5175518;27;38683;-78
2024/04/14 08:39:50;;;;;;;4.90;0.98;;;13.60;1.00;;;;;;5170201;27;37981;-78
2024/04/14 08:42:18;;;;;;;4.40;1.08;;;13.50;99.90;;;;;;5176087;27;36683;-78
2024/04/14 08:44:46;;;;;;;3.42;1.10;;;13.50;1.00;;;;;;5166286;27;36151;-79
2024/04/14 08:47:16;;;;;;;6.03;1.27;;;13.50;1.00;;;;;;5159962;27;38882;-79
2024/04/14 08:49:43;;;;;;;4.68;1.30;;;13.60;1.00;;;;;;5176213;27;39863;-79
2024/04/14 08:52:11;;;;;;;13.98;1.67;;;13.70;1.00;;;;;;5171401;27;37008;-79
2024/04/14 08:54:38;;;;;;;8.35;1.83;;;13.90;45.80;;;;;;5179283;27;36674;-79
2024/04/14 08:57:06;;;;;;;7.28;1.33;;;14.00;1.00;;;;;;5197719;27;39084;-79
2024/04/14 08:59:33;;;;;;;10.48;1.60;;;14.10;44.50;;;;;;5179218;27;37214;-80
2024/04/14 09:02:01;;;;;;;5.18;1.27;;;14.30;1.00;;;;;;5171956;27;37005;-76
2024/04/14 09:04:28;;;;;;;7.43;1.95;;;14.50;1.00;;;;;;5165347;27;48585;-76
2024/04/14 09:06:54;;;;;;;7.55;1.90;;;14.60;1.00;;;;;;5182910;27;39227;-80
2024/04/14 09:09:23;;;;;;;6.97;1.33;;;14.70;1.00;;;;;;5179506;27;37086;-81
2024/04/14 09:11:53;;;;;;;7.40;1.65;;;14.60;1.00;;;;;;5183635;27;37377;-79
2024/04/14 09:14:22;;;;;;;6.95;1.38;;;14.60;1.00;;;;;;5193591;27;36402;-79
2024/04/14 09:16:50;;;;;;;8.93;1.38;;;14.70;1.00;;;;;;5198914;27;39481;-79
2024/04/14 09:19:19;;;;;;;6.57;1.25;;;14.60;1.00;;;;;;5194655;27;38016;-79
2024/04/14 09:21:46;;;;;;;4.85;1.45;;;14.70;1.00;;;;;;5195327;27;37749;-78
2024/04/14 09:24:13;;;;;;;13.73;1.27;;;14.90;1.00;;;;;;5185150;27;37184;-79
2024/04/14 09:26:43;;;;;;;6.15;1.45;;;14.90;99.90;;;;;;5194870;27;37666;-79
2024/04/14 09:29:10;;;;;;;6.13;1.55;;;14.90;99.90;;;;;;5194883;27;39419;-78
2024/04/14 09:31:41;;;;;;;8.15;1.38;;;14.90;1.00;;;;;;5191976;27;39591;-79
2024/04/14 09:34:09;;;;;;;9.95;1.75;;;15.10;1.00;;;;;;5171007;27;36351;-80
2024/04/14 09:36:37;;;;;;;3.63;1.00;;;15.10;1.00;;;;;;5180008;27;39193;-79
2024/04/14 09:39:06;;;;;;;4.70;1.70;;;15.20;1.00;;;;;;5196593;27;38641;-79
2024/04/14 09:41:35;;;;;;;5.10;1.20;;;15.50;1.00;;;;;;5195663;27;38100;-79
2024/04/14 09:44:04;;;;;;;8.60;1.45;;;15.70;1.00;;;;;;5194859;27;37446;-79
2024/04/14 09:46:32;;;;;;;3.67;1.17;;;15.80;1.00;;;;;;5193397;27;47586;-80
2024/04/14 09:49:01;;;;;;;4.05;1.35;;;15.80;1.00;;;;;;5191515;27;38755;-79
2024/04/14 09:51:28;;;;;;;5.50;1.20;;;15.70;1.00;;;;;;5193715;27;47533;-79
2024/04/14 09:53:58;;;;;;;7.50;1.85;;;16.00;1.00;;;;;;5195554;27;36155;-79
2024/04/14 09:57:07;;;;;;;7.05;1.52;;;16.30;1.00;;;;;;5176360;27;42159;-79
2024/04/14 09:59:33;;;;;;;6.40;1.13;;;16.30;1.00;;;;;;5163115;27;49747;-80
2024/04/14 10:02:03;;;;;;;6.10;0.93;;;16.00;1.00;;;;;;5144098;27;37100;-80
2024/04/14 10:04:34;;;;;;;8.30;1.48;;;16.10;1.00;;;;;;5148592;27;47689;-80
2024/04/14 10:07:02;;;;;;;3.97;1.05;;;16.20;1.00;;;;;;5114852;27;40509;-80
2024/04/14 10:09:34;;;;;;;6.32;1.30;;;16.40;1.00;;;;;;5139468;27;47337;-80
2024/04/14 10:12:01;;;;;;;5.40;1.38;;;16.30;1.00;;;;;;5150653;27;40346;-80
2024/04/14 10:14:48;;;;;;;4.93;1.20;;;16.20;1.00;;;;;;5139710;27;48818;-81
2024/04/14 10:17:21;;;;;;;6.55;1.30;;;16.30;1.00;;;;;;5123981;27;39096;-80
2024/04/14 10:20:05;;;;;;;7.68;1.42;;;16.30;1.00;;;;;;5145501;27;37696;-80
2024/04/14 10:22:40;;;;;;;6.13;1.23;;;16.20;1.00;;;;;;5179216;27;49280;-80
2024/04/14 10:25:22;;;;;;;5.40;0.95;;;16.30;1.00;;;;;;5133913;27;36047;-80
2024/04/14 10:27:50;;;;;;;6.60;1.48;;;16.30;1.00;;;;;;5142656;27;39618;-79
2024/04/14 10:30:24;;;;;;;4.28;1.00;;;16.40;1.00;;;;;;5181842;27;38537;-79
2024/04/14 10:33:10;;;;;;;4.32;1.05;;;16.10;1.00;;;;;;5193900;27;38328;-79
2024/04/14 10:35:36;;;;;;;6.40;1.40;;;16.50;1.00;;;;;;5158187;27;47984;-79
2024/04/14 10:38:02;;;;;;;6.30;1.35;;;16.90;1.00;;;;;;5183243;27;39685;-78
2024/04/14 10:40:29;;;;;;;6.60;1.58;;;16.90;1.00;;;;;;5184468;27;37845;-78
2024/04/14 10:42:55;;;;;;;8.93;1.77;;;16.80;1.00;;;;;;5173129;27;38886;-79
2024/04/14 10:45:28;;;;;;;7.60;1.63;;;16.80;1.00;;;;;;5177356;27;36388;-78
2024/04/14 10:47:58;;;;;;;7.25;1.63;;;16.70;1.00;;;;;;5178972;27;37576;-77
2024/04/14 10:50:28;;;;;;;6.95;1.40;;;16.60;1.00;;;;;;5176676;27;38408;-77
2024/04/14 10:52:54;;;;;;;6.25;1.95;;;16.50;1.00;;;;;;5173479;27;38536;-76
2024/04/14 10:55:21;;;;;;;7.38;1.67;;;16.50;1.00;;;;;;5195811;27;37370;-79
2024/04/14 10:57:50;;;;;;;8.18;1.77;;;16.50;1.00;;;;;;5184246;27;37000;-80
2024/04/14 11:00:39;;;;;;;4.65;1.40;;;16.50;1.00;;;;;;5194289;27;37471;-80
2024/04/14 11:03:08;;;;;;;7.30;1.77;;;16.50;1.00;;;;;;5185661;27;50419;-80
2024/04/14 11:05:37;;;;;;;7.85;1.40;;;16.50;1.00;;;;;;5192160;27;37780;-79
2024/04/14 11:08:11;;;;;;;7.88;1.83;;;16.50;1.00;;;;;;5191183;27;39441;-79
2024/04/14 11:10:40;;;;;;;8.23;1.73;;;16.10;99.90;;;;;;5202329;27;39010;-80
2024/04/14 11:13:21;;;;;;;4.78;1.38;;;16.30;1.00;;;;;;5175754;27;38501;-79
2024/04/14 11:15:49;;;;;;;5.77;1.43;;;16.60;1.00;;;;;;5181656;27;36678;-81
2024/04/14 11:18:18;;;;;;;9.45;1.67;;;16.60;1.00;;;;;;5189857;27;37907;-80
2024/04/14 11:23:40;;;;;;;5.25;1.20;;;16.90;1.00;;;;;;6088236;22;21348;-79
2024/04/14 11:26:06;;;;;;;6.50;1.50;;;16.90;1.00;;;;;;5176310;27;37108;-78
2024/04/14 11:31:09;;;;;;;6.97;1.40;;;17.00;1.00;;;;;;4943543;25;20045;-80
2024/04/14 11:33:37;;;;;;;8.57;2.00;;;16.80;1.00;;;;;;5122003;27;39905;-76
2024/04/14 11:36:03;;;;;;;4.53;1.20;;;16.90;1.00;;;;;;5134192;27;37539;-76
2024/04/14 11:38:32;;;;;;;5.15;1.38;;;16.90;1.00;;;;;;5114911;27;38686;-79
2024/04/14 11:40:58;;;;;;;6.78;1.35;;;17.00;1.00;;;;;;5158943;27;38724;-80
2024/04/14 11:43:28;;;;;;;7.70;1.60;;;17.30;1.00;;;;;;5128525;27;37113;-81
2024/04/14 11:46:31;;;;;;;5.87;1.37;;;17.50;1.00;;;;;;5136175;27;38306;-80
2024/04/14 11:48:58;;;;;;;8.00;2.00;;;17.10;1.00;;;;;;4998993;28;50113;-80
2024/04/14 11:51:32;;;;;;;6.82;1.48;;;17.00;1.00;;;;;;4997264;28;37762;-80
2024/04/14 11:54:04;;;;;;;7.95;1.35;;;16.90;1.00;;;;;;4981459;28;37695;-79
2024/04/14 11:56:30;;;;;;;9.15;1.48;;;16.90;1.00;;;;;;4992512;27;47653;-80
2024/04/14 11:59:01;;;;;;;6.40;1.27;;;16.90;1.00;;;;;;5124044;27;40143;-79
2024/04/14 12:01:27;;;;;;;5.88;1.40;;;17.00;1.00;;;;;;5114255;27;50352;-78
2024/04/14 12:03:53;;;;;;;5.53;1.52;;;17.00;1.00;;;;;;5135593;27;39405;-81
2024/04/14 12:09:44;;;;;;;7.82;1.70;;;17.00;1.00;;;;;;5144239;27;50770;-80
2024/04/14 12:12:11;;;;;;;9.20;1.70;;;17.30;1.00;;;;;;5137147;27;38703;-80
2024/04/14 12:14:41;;;;;;;8.65;1.30;;;17.30;1.00;;;;;;5164282;27;37710;-81
2024/04/14 12:17:15;;;;;;;7.85;1.88;;;17.30;1.00;;;;;;5133041;27;38753;-79
2024/04/14 12:19:41;;;;;;;5.70;1.73;;;17.20;1.00;;;;;;5159968;27;38556;-79
2024/04/14 12:22:08;;;;;;;7.18;1.60;;;17.10;1.00;;;;;;5143258;27;37768;-78
2024/04/14 12:24:41;;;;;;;9.23;1.60;;;17.20;1.00;;;;;;5126854;27;36934;-80
2024/04/14 12:27:22;;;;;;;6.20;1.45;;;17.50;1.00;;;;;;5119571;27;37033;-80
2024/04/14 12:29:50;;;;;;;7.30;1.48;;;17.40;1.00;;;;;;5135432;27;41169;-81
2024/04/14 12:32:27;;;;;;;12.05;2.00;;;17.30;1.00;;;;;;5122107;27;38486;-79
2024/04/14 12:35:22;;;;;;;4.88;1.30;;;17.30;1.00;;;;;;5140009;27;20042;-81
2024/04/14 12:38:06;;;;;;;6.05;1.42;;;17.70;1.00;;;;;;5138277;27;50592;-79
2024/04/14 12:40:42;;;;;;;6.30;1.97;;;17.60;1.00;;;;;;5134365;27;49045;-81
2024/04/14 12:43:21;;;;;;;7.60;1.75;;;17.50;1.00;;;;;;5128741;27;39973;-81
2024/04/14 12:45:53;;;;;;;9.63;2.40;;;17.30;1.00;;;;;;5130589;27;39801;-80
2024/04/14 12:52:49;;;;;;;11.07;2.28;;;16.50;1.00;;;;;;5811105;22;20013;-82
2024/04/14 13:04:59;;;;;;;6.25;1.80;;;16.60;1.00;;;;;;5483993;22;20060;-82
2024/04/14 13:24:59;;;;;;;7.63;1.35;;;16.90;1.00;;;;;;5905860;22;20038;-81
2024/04/14 13:28:20;;;;;;;;;;;;;;;;;;;;;
2024/04/14 13:31:41;;;;;;;9.27;1.95;;;16.90;1.00;;;;;;5074817;27;50072;-82
2024/04/14 13:34:59;;;;;;;6.40;1.63;;;16.70;1.00;;;;;;5087567;27;50471;-82
2024/04/14 13:43:16;;;;;;;6.70;1.60;;;17.00;1.00;;;;;;5360702;22;20204;-81
2024/04/14 13:55:23;;;;;;;7.68;2.08;;;16.90;1.00;;;;;;5749638;22;20038;-82
2024/04/14 13:58:19;;;;;;;13.30;2.30;;;16.80;1.00;;;;;;5172103;27;49564;-82
2024/04/14 14:12:00;;;;;;;5.60;1.58;;;16.20;1.00;;;;;;5218223;22;20008;-80
2024/04/14 14:15:35;;;;;;;6.93;1.88;;;16.20;1.00;;;;;;5031251;27;50108;-81
2024/04/14 14:18:24;;;;;;;8.45;1.65;;;16.50;1.00;;;;;;5040512;28;50498;-82
2024/04/14 14:24:35;;;;;;;8.53;2.00;;;16.50;1.00;;;;;;5089679;27;39093;-82
2024/04/14 14:27:25;;;;;;;7.20;1.80;;;16.80;1.00;;;;;;5112950;27;39474;-81
2024/04/14 14:30:09;;;;;;;6.68;1.58;;;16.90;1.00;;;;;;5103822;27;38875;-81
2024/04/14 14:32:48;;;;;;;;;;;16.80;1.00;;;;;;5052682;28;50602;-82
2024/04/14 14:38:21;;;;;;;9.43;1.90;;;16.60;1.00;;;;;;5456044;22;20036;-82
2024/04/14 15:08:46;;;;;;;;;;;15.60;1.00;;;;;;5741138;22;20020;-83
2024/04/14 15:11:38;;;;;;;6.20;1.17;;;15.70;99.90;;;;;;5191052;27;38033;-82
2024/04/14 16:17:18;;;;;;;;;;;14.80;56.80;;;;;;3422707;25;20005;-80
2024/04/14 16:24:20;;;;;;;10.73;1.75;;;14.70;1.00;;;;;;5129978;27;50840;-81
2024/04/14 16:27:18;;;;;;;8.80;1.80;;;14.70;1.00;;;;;;5196666;27;50252;-81
2024/04/14 16:29:56;;;;;;;3.67;1.20;;;14.60;1.00;;;;;;5151117;27;50803;-80
2024/04/14 16:32:28;;;;;;;4.93;1.65;;;14.50;1.00;;;;;;5202608;27;41006;-81
2024/04/14 16:35:50;;;;;;;;;;;;;;;;;;;;;
2024/04/14 16:38:45;;;;;;;8.43;1.48;;;14.30;99.90;;;;;;4996003;28;50546;-80
2024/04/14 16:41:22;;;;;;;8.90;1.77;;;14.20;99.90;;;;;;5107607;27;38643;-80
2024/04/14 16:43:54;;;;;;;6.57;1.45;;;14.30;93.90;;;;;;5121283;27;40034;-80
2024/04/14 16:46:22;;;;;;;7.20;1.40;;;14.20;28.40;;;;;;5084509;27;38574;-79
2024/04/14 16:48:57;;;;;;;6.50;1.58;;;14.20;99.90;;;;;;5138258;27;40318;-80
2024/04/14 16:51:28;;;;;;;5.57;1.25;;;14.30;1.00;;;;;;5153858;27;39712;-80
2024/04/14 16:54:03;;;;;;;5.10;1.10;;;14.30;1.00;;;;;;5156949;27;38717;-81
2024/04/14 16:56:39;;;;;;;9.65;1.95;;;14.40;99.90;;;;;;5146044;27;50097;-81
2024/04/14 16:59:11;;;;;;;7.13;1.45;;;14.60;1.00;;;;;;5127487;27;40446;-82
2024/04/14 17:01:51;;;;;;;9.80;1.58;;;14.60;1.00;;;;;;5137051;27;38473;-78
2024/04/14 17:04:31;;;;;;;7.85;1.45;;;14.60;1.00;;;;;;5113635;27;36252;-80
2024/04/14 17:07:00;;;;;;;5.47;1.35;;;14.40;1.00;;;;;;5109096;27;37503;-80
2024/04/14 17:09:38;;;;;;;5.95;1.92;;;14.20;99.90;;;;;;5112969;27;39286;-79
2024/04/14 17:12:12;;;;;;;6.65;1.40;;;14.10;99.90;;;;;;5094714;27;40881;-80
2024/04/14 17:14:44;;;;;;;19.15;2.17;;;14.10;1.00;;;;;;5166956;27;39165;-80
2024/04/14 17:17:13;;;;;;;36.38;3.58;;;13.90;99.90;;;;;;5170286;27;37596;-80
2024/04/14 17:19:51;;;;;;;15.82;1.88;;;13.80;1.00;;;;;;5180381;27;40285;-80
2024/04/14 17:22:36;;;;;;;8.80;1.88;;;13.80;1.00;;;;;;5168568;27;49827;-81
2024/04/14 17:25:06;;;;;;;13.57;2.40;;;13.70;1.00;;;;;;5173527;27;36985;-80
2024/04/14 17:27:34;;;;;;;8.63;1.70;;;13.70;1.00;;;;;;5136590;27;47883;-81
2024/04/14 17:30:22;;;;;;;5.72;1.70;;;13.70;1.00;;;;;;5159623;27;37903;-82
2024/04/14 17:33:04;;;;;;;6.75;1.95;;;13.70;99.90;;;;;;5195775;27;47539;-82
2024/04/14 17:35:35;;;;;;;9.10;2.05;;;13.60;1.00;;;;;;5189509;27;49366;-82
2024/04/14 17:38:10;;;;;;;8.25;1.98;;;13.60;91.40;;;;;;5178903;27;37067;-81
2024/04/14 17:43:36;;;;;;;8.02;1.80;;;13.50;99.90;;;;;;5155345;27;39060;-82
2024/04/14 17:46:14;;;;;;;7.85;2.13;;;13.40;99.90;;;;;;5218493;27;38003;-81
2024/04/14 17:48:56;;;;;;;6.60;2.10;;;13.40;99.90;;;;;;5164459;27;50362;-81
2024/04/14 17:51:30;;;;;;;6.25;1.98;;;13.30;1.00;;;;;;5162207;27;39691;-80
2024/04/14 17:54:11;;;;;;;8.73;2.45;;;13.30;99.90;;;;;;5173672;27;37235;-80
2024/04/14 17:57:04;;;;;;;10.23;2.22;;;13.40;99.90;;;;;;5185656;27;49132;-81
2024/04/14 18:00:05;;;;;;;;;;;;;;;;;;;;;
2024/04/14 18:03:31;;;;;;;;;;;;;;;;;;;;;
2024/04/14 18:05:59;;;;;;;8.60;2.28;;;13.20;1.00;;;;;;4930913;27;48896;-79
2024/04/14 18:08:27;;;;;;;5.72;1.77;;;13.10;1.00;;;;;;5182769;27;39643;-82
2024/04/14 18:11:05;;;;;;;5.63;1.85;;;13.10;1.00;;;;;;5199047;27;37189;-80
2024/04/14 18:13:43;;;;;;;4.65;1.85;;;13.10;8.20;;;;;;5176687;27;48576;-81
2024/04/14 18:16:18;;;;;;;7.95;2.13;;;13.00;1.00;;;;;;5189650;27;38720;-80
2024/04/14 18:18:53;;;;;;;7.55;1.65;;;13.00;1.00;;;;;;5194808;27;38819;-81
2024/04/14 18:21:20;;;;;;;7.38;1.90;;;13.00;99.90;;;;;;5194191;27;38619;-81
2024/04/14 18:24:09;;;;;;;9.85;1.92;;;12.90;1.00;;;;;;5191765;27;39110;-80
2024/04/14 18:26:36;;;;;;;10.40;1.90;;;12.90;59.40;;;;;;5177697;27;48226;-81
2024/04/14 18:29:55;;;;;;;8.18;1.85;;;12.80;99.90;;;;;;5177485;27;40206;-83
2024/04/14 18:32:21;;;;;;;6.47;1.52;;;12.70;1.00;;;;;;5171526;27;38672;-78
2024/04/14 18:34:49;;;;;;;12.52;1.88;;;12.80;99.90;;;;;;5172108;27;38251;-79
2024/04/14 18:37:16;;;;;;;8.27;2.15;;;12.80;99.90;;;;;;5176489;27;37173;-78
2024/04/14 18:40:11;;;;;;;8.13;1.98;;;12.80;1.00;;;;;;5175456;27;36831;-82
2024/04/14 18:48:17;;;;;;;9.57;2.00;;;12.60;99.90;;;;;;3242420;25;20020;-80
2024/04/14 18:51:06;;;;;;;7.85;2.15;;;12.60;1.00;;;;;;5192854;27;47748;-80
2024/04/14 18:53:55;;;;;;;9.55;1.80;;;12.50;1.00;;;;;;5189270;27;48761;-80
2024/04/14 18:59:44;;;;;;;6.72;2.22;;;12.60;1.00;;;;;;5150014;27;49576;-81